sensor_id;sensor_type;location;lat;lon;timestamp;P1;durP1;ratioP1;P2;durP2;ratioP2
16954;SDS011;8594;52.052;8.354;2023-04-15T00:01:17;13.67;;;6.80;;
16954;SDS011;8594;52.052;8.354;2023-04-15T00:03:43;9.13;;;6.47;;
16954;SDS011;8594;52.052;8.354;2023-04-15T00:06:11;10.60;;;5.77;;
16954;SDS011;8594;52.052;8.354;2023-04-15T00:08:38;10.53;;;6.47;;
16954;SDS011;8594;52.052;8.354;2023-04-15T00:11:06;10.77;;;6.47;;
16954;SDS011;8594;52.052;8.354;2023-04-15T00:13:33;9.33;;;6.57;;
16954;SDS011;8594;52.052;8.354;2023-04-15T00:16:00;9.43;;;5.90;;
16954;SDS011;8594;52.052;8.354;2023-04-15T00:18:27;8.33;;;6.13;;
16954;SDS011;8594;52.052;8.354;2023-04-15T00:20:55;9.33;;;6.33;;
16954;SDS011;8594;52.052;8.354;2023-04-15T00:23:22;10.67;;;6.37;;
16954;SDS011;8594;52.052;8.354;2023-04-15T00:25:50;10.17;;;6.60;;
16954;SDS011;8594;52.052;8.354;2023-04-15T00:28:18;13.53;;;7.03;;
16954;SDS011;8594;52.052;8.354;2023-04-15T00:30:45;11.30;;;6.30;;
16954;SDS011;8594;52.052;8.354;2023-04-15T00:33:12;10.87;;;6.47;;
16954;SDS011;8594;52.052;8.354;2023-04-15T00:35:40;12.13;;;7.07;;
16954;SDS011;8594;52.052;8.354;2023-04-15T00:38:07;13.63;;;7.37;;
16954;SDS011;8594;52.052;8.354;2023-04-15T00:40:34;13.13;;;7.00;;
16954;SDS011;8594;52.052;8.354;2023-04-15T00:43:01;14.03;;;7.20;;
16954;SDS011;8594;52.052;8.354;2023-04-15T00:45:30;13.23;;;7.17;;
16954;SDS011;8594;52.052;8.354;2023-04-15T00:47:59;12.20;;;6.83;;
16954;SDS011;8594;52.052;8.354;2023-04-15T00:50:26;10.73;;;7.27;;
16954;SDS011;8594;52.052;8.354;2023-04-15T00:52:52;9.80;;;7.10;;
16954;SDS011;8594;52.052;8.354;2023-04-15T00:55:19;11.10;;;6.73;;
16954;SDS011;8594;52.052;8.354;2023-04-15T00:57:46;11.20;;;7.30;;
16954;SDS011;8594;52.052;8.354;2023-04-15T01:00:13;14.63;;;7.77;;
16954;SDS011;8594;52.052;8.354;2023-04-15T01:02:42;11.50;;;7.67;;
16954;SDS011;8594;52.052;8.354;2023-04-15T01:05:08;11.50;;;7.53;;
16954;SDS011;8594;52.052;8.354;2023-04-15T01:07:35;11.67;;;7.50;;
16954;SDS011;8594;52.052;8.354;2023-04-15T01:10:02;11.40;;;7.03;;
16954;SDS011;8594;52.052;8.354;2023-04-15T01:12:30;10.77;;;7.80;;
16954;SDS011;8594;52.052;8.354;2023-04-15T01:14:59;11.33;;;7.77;;
16954;SDS011;8594;52.052;8.354;2023-04-15T01:17:26;11.83;;;8.00;;
16954;SDS011;8594;52.052;8.354;2023-04-15T01:19:55;12.13;;;7.67;;
16954;SDS011;8594;52.052;8.354;2023-04-15T01:22:23;13.90;;;8.80;;
16954;SDS011;8594;52.052;8.354;2023-04-15T01:24:54;13.53;;;8.47;;
16954;SDS011;8594;52.052;8.354;2023-04-15T01:27:30;13.37;;;8.53;;
16954;SDS011;8594;52.052;8.354;2023-04-15T01:29:57;13.47;;;8.60;;
16954;SDS011;8594;52.052;8.354;2023-04-15T01:32:24;13.63;;;8.20;;
16954;SDS011;8594;52.052;8.354;2023-04-15T01:34:51;12.33;;;8.13;;
16954;SDS011;8594;52.052;8.354;2023-04-15T01:37:17;14.80;;;8.77;;
16954;SDS011;8594;52.052;8.354;2023-04-15T01:39:44;13.83;;;8.10;;
16954;SDS011;8594;52.052;8.354;2023-04-15T01:42:11;13.20;;;8.67;;
16954;SDS011;8594;52.052;8.354;2023-04-15T01:44:39;14.03;;;8.57;;
16954;SDS011;8594;52.052;8.354;2023-04-15T01:47:06;17.17;;;8.47;;
16954;SDS011;8594;52.052;8.354;2023-04-15T01:49:33;13.50;;;8.20;;
16954;SDS011;8594;52.052;8.354;2023-04-15T01:52:00;13.70;;;8.53;;
16954;SDS011;8594;52.052;8.354;2023-04-15T01:54:27;13.23;;;8.50;;
16954;SDS011;8594;52.052;8.354;2023-04-15T01:56:53;16.07;;;8.57;;
16954;SDS011;8594;52.052;8.354;2023-04-15T01:59:20;14.67;;;8.63;;
16954;SDS011;8594;52.052;8.354;2023-04-15T02:01:49;16.63;;;7.97;;
16954;SDS011;8594;52.052;8.354;2023-04-15T02:04:16;15.53;;;8.30;;
16954;SDS011;8594;52.052;8.354;2023-04-15T02:06:43;17.67;;;9.10;;
16954;SDS011;8594;52.052;8.354;2023-04-15T02:09:10;14.57;;;8.27;;
16954;SDS011;8594;52.052;8.354;2023-04-15T02:11:37;13.37;;;8.87;;
16954;SDS011;8594;52.052;8.354;2023-04-15T02:14:04;15.17;;;8.50;;
16954;SDS011;8594;52.052;8.354;2023-04-15T02:16:31;12.87;;;8.40;;
16954;SDS011;8594;52.052;8.354;2023-04-15T02:18:59;14.13;;;8.83;;
16954;SDS011;8594;52.052;8.354;2023-04-15T02:21:27;15.23;;;9.30;;
16954;SDS011;8594;52.052;8.354;2023-04-15T02:23:54;11.60;;;8.57;;
16954;SDS011;8594;52.052;8.354;2023-04-15T02:26:21;13.90;;;8.50;;
16954;SDS011;8594;52.052;8.354;2023-04-15T02:28:49;15.00;;;9.00;;
16954;SDS011;8594;52.052;8.354;2023-04-15T02:31:16;18.33;;;9.77;;
16954;SDS011;8594;52.052;8.354;2023-04-15T02:33:43;14.70;;;9.07;;
16954;SDS011;8594;52.052;8.354;2023-04-15T02:36:11;12.20;;;8.53;;
16954;SDS011;8594;52.052;8.354;2023-04-15T02:38:38;14.53;;;8.40;;
16954;SDS011;8594;52.052;8.354;2023-04-15T02:41:07;12.27;;;7.80;;
16954;SDS011;8594;52.052;8.354;2023-04-15T02:43:34;15.47;;;8.10;;
16954;SDS011;8594;52.052;8.354;2023-04-15T02:46:01;11.33;;;8.03;;
16954;SDS011;8594;52.052;8.354;2023-04-15T02:48:28;13.83;;;8.27;;
16954;SDS011;8594;52.052;8.354;2023-04-15T02:51:09;14.90;;;8.27;;
16954;SDS011;8594;52.052;8.354;2023-04-15T02:53:41;15.27;;;8.07;;
16954;SDS011;8594;52.052;8.354;2023-04-15T02:56:08;13.17;;;7.97;;
16954;SDS011;8594;52.052;8.354;2023-04-15T02:58:35;13.83;;;8.63;;
16954;SDS011;8594;52.052;8.354;2023-04-15T03:01:02;14.10;;;8.13;;
16954;SDS011;8594;52.052;8.354;2023-04-15T03:03:29;12.53;;;8.17;;
16954;SDS011;8594;52.052;8.354;2023-04-15T03:05:56;14.70;;;9.27;;
16954;SDS011;8594;52.052;8.354;2023-04-15T03:08:24;14.20;;;8.40;;
16954;SDS011;8594;52.052;8.354;2023-04-15T03:10:51;15.87;;;7.90;;
16954;SDS011;8594;52.052;8.354;2023-04-15T03:13:18;15.20;;;8.10;;
16954;SDS011;8594;52.052;8.354;2023-04-15T03:15:45;12.07;;;7.37;;
16954;SDS011;8594;52.052;8.354;2023-04-15T03:18:12;12.63;;;7.80;;
16954;SDS011;8594;52.052;8.354;2023-04-15T03:20:39;11.43;;;7.63;;
16954;SDS011;8594;52.052;8.354;2023-04-15T03:23:06;12.53;;;7.87;;
16954;SDS011;8594;52.052;8.354;2023-04-15T03:25:34;12.83;;;8.33;;
16954;SDS011;8594;52.052;8.354;2023-04-15T03:28:02;13.33;;;7.83;;
16954;SDS011;8594;52.052;8.354;2023-04-15T03:30:29;14.57;;;8.50;;
16954;SDS011;8594;52.052;8.354;2023-04-15T03:32:56;17.33;;;8.50;;
16954;SDS011;8594;52.052;8.354;2023-04-15T03:35:22;14.00;;;8.20;;
16954;SDS011;8594;52.052;8.354;2023-04-15T03:37:49;17.50;;;8.70;;
16954;SDS011;8594;52.052;8.354;2023-04-15T03:40:16;14.50;;;8.30;;
16954;SDS011;8594;52.052;8.354;2023-04-15T03:42:44;16.13;;;8.63;;
16954;SDS011;8594;52.052;8.354;2023-04-15T03:45:11;14.53;;;8.40;;
16954;SDS011;8594;52.052;8.354;2023-04-15T03:47:38;16.30;;;8.60;;
16954;SDS011;8594;52.052;8.354;2023-04-15T03:50:05;15.40;;;8.73;;
16954;SDS011;8594;52.052;8.354;2023-04-15T03:52:33;15.87;;;9.17;;
16954;SDS011;8594;52.052;8.354;2023-04-15T03:54:59;18.60;;;9.77;;
16954;SDS011;8594;52.052;8.354;2023-04-15T03:57:26;16.00;;;9.67;;
16954;SDS011;8594;52.052;8.354;2023-04-15T03:59:54;18.60;;;10.17;;
16954;SDS011;8594;52.052;8.354;2023-04-15T04:02:21;17.60;;;10.40;;
16954;SDS011;8594;52.052;8.354;2023-04-15T04:04:48;17.60;;;10.23;;
16954;SDS011;8594;52.052;8.354;2023-04-15T04:07:15;17.17;;;10.50;;
16954;SDS011;8594;52.052;8.354;2023-04-15T04:09:42;17.77;;;10.27;;
16954;SDS011;8594;52.052;8.354;2023-04-15T04:12:09;19.47;;;10.07;;
16954;SDS011;8594;52.052;8.354;2023-04-15T04:14:35;19.27;;;11.27;;
16954;SDS011;8594;52.052;8.354;2023-04-15T04:17:03;18.57;;;10.80;;
16954;SDS011;8594;52.052;8.354;2023-04-15T04:19:30;19.43;;;10.93;;
16954;SDS011;8594;52.052;8.354;2023-04-15T04:21:57;17.43;;;10.27;;
16954;SDS011;8594;52.052;8.354;2023-04-15T04:24:24;17.53;;;10.90;;
16954;SDS011;8594;52.052;8.354;2023-04-15T04:26:50;19.50;;;11.63;;
16954;SDS011;8594;52.052;8.354;2023-04-15T04:29:17;22.13;;;11.97;;
16954;SDS011;8594;52.052;8.354;2023-04-15T04:31:44;20.40;;;10.97;;
16954;SDS011;8594;52.052;8.354;2023-04-15T04:34:14;23.47;;;11.67;;
16954;SDS011;8594;52.052;8.354;2023-04-15T04:36:40;24.53;;;11.67;;
16954;SDS011;8594;52.052;8.354;2023-04-15T04:39:07;22.17;;;11.93;;
16954;SDS011;8594;52.052;8.354;2023-04-15T04:41:34;23.07;;;11.70;;
16954;SDS011;8594;52.052;8.354;2023-04-15T04:44:01;25.07;;;11.90;;
16954;SDS011;8594;52.052;8.354;2023-04-15T04:46:27;19.23;;;11.60;;
16954;SDS011;8594;52.052;8.354;2023-04-15T04:48:54;20.13;;;11.47;;
16954;SDS011;8594;52.052;8.354;2023-04-15T04:51:22;19.47;;;11.17;;
16954;SDS011;8594;52.052;8.354;2023-04-15T04:53:50;25.43;;;12.23;;
16954;SDS011;8594;52.052;8.354;2023-04-15T04:56:17;22.83;;;11.67;;
16954;SDS011;8594;52.052;8.354;2023-04-15T04:58:43;20.17;;;11.10;;
16954;SDS011;8594;52.052;8.354;2023-04-15T05:01:10;21.90;;;10.97;;
16954;SDS011;8594;52.052;8.354;2023-04-15T05:03:37;19.27;;;10.77;;
16954;SDS011;8594;52.052;8.354;2023-04-15T05:06:04;22.43;;;11.43;;
16954;SDS011;8594;52.052;8.354;2023-04-15T05:08:34;18.57;;;10.90;;
16954;SDS011;8594;52.052;8.354;2023-04-15T05:11:00;23.50;;;11.27;;
16954;SDS011;8594;52.052;8.354;2023-04-15T05:13:27;20.17;;;10.87;;
16954;SDS011;8594;52.052;8.354;2023-04-15T05:15:55;20.70;;;11.83;;
16954;SDS011;8594;52.052;8.354;2023-04-15T05:18:21;27.60;;;13.50;;
16954;SDS011;8594;52.052;8.354;2023-04-15T05:20:48;32.97;;;14.03;;
16954;SDS011;8594;52.052;8.354;2023-04-15T05:23:15;30.00;;;14.07;;
16954;SDS011;8594;52.052;8.354;2023-04-15T05:25:43;26.20;;;14.63;;
16954;SDS011;8594;52.052;8.354;2023-04-15T05:28:10;27.90;;;14.03;;
16954;SDS011;8594;52.052;8.354;2023-04-15T05:30:37;39.40;;;17.20;;
16954;SDS011;8594;52.052;8.354;2023-04-15T05:33:05;26.40;;;15.30;;
16954;SDS011;8594;52.052;8.354;2023-04-15T05:35:31;29.90;;;15.27;;
16954;SDS011;8594;52.052;8.354;2023-04-15T05:37:58;34.77;;;16.23;;
16954;SDS011;8594;52.052;8.354;2023-04-15T05:40:25;28.33;;;15.00;;
16954;SDS011;8594;52.052;8.354;2023-04-15T05:42:53;26.57;;;14.10;;
16954;SDS011;8594;52.052;8.354;2023-04-15T05:45:20;25.20;;;14.30;;
16954;SDS011;8594;52.052;8.354;2023-04-15T05:47:47;27.03;;;14.60;;
16954;SDS011;8594;52.052;8.354;2023-04-15T05:50:18;28.23;;;14.60;;
16954;SDS011;8594;52.052;8.354;2023-04-15T05:52:44;29.60;;;14.47;;
16954;SDS011;8594;52.052;8.354;2023-04-15T05:55:11;31.03;;;14.33;;
16954;SDS011;8594;52.052;8.354;2023-04-15T05:57:39;24.83;;;13.83;;
16954;SDS011;8594;52.052;8.354;2023-04-15T06:00:08;25.77;;;13.93;;
16954;SDS011;8594;52.052;8.354;2023-04-15T06:02:37;27.43;;;14.83;;
16954;SDS011;8594;52.052;8.354;2023-04-15T06:05:03;30.70;;;15.40;;
16954;SDS011;8594;52.052;8.354;2023-04-15T06:07:33;30.63;;;15.20;;
16954;SDS011;8594;52.052;8.354;2023-04-15T06:10:01;31.40;;;15.80;;
16954;SDS011;8594;52.052;8.354;2023-04-15T06:12:28;27.70;;;15.03;;
16954;SDS011;8594;52.052;8.354;2023-04-15T06:14:55;36.20;;;15.27;;
16954;SDS011;8594;52.052;8.354;2023-04-15T06:17:23;29.37;;;15.33;;
16954;SDS011;8594;52.052;8.354;2023-04-15T06:19:50;40.10;;;16.20;;
16954;SDS011;8594;52.052;8.354;2023-04-15T06:22:19;29.77;;;15.40;;
16954;SDS011;8594;52.052;8.354;2023-04-15T06:24:46;34.83;;;17.37;;
16954;SDS011;8594;52.052;8.354;2023-04-15T06:27:13;31.43;;;16.10;;
16954;SDS011;8594;52.052;8.354;2023-04-15T06:29:40;30.77;;;16.47;;
16954;SDS011;8594;52.052;8.354;2023-04-15T06:32:07;31.07;;;16.40;;
16954;SDS011;8594;52.052;8.354;2023-04-15T06:34:35;36.17;;;17.30;;
16954;SDS011;8594;52.052;8.354;2023-04-15T06:37:01;28.40;;;16.23;;
16954;SDS011;8594;52.052;8.354;2023-04-15T06:39:28;30.43;;;16.07;;
16954;SDS011;8594;52.052;8.354;2023-04-15T06:41:55;28.67;;;15.10;;
16954;SDS011;8594;52.052;8.354;2023-04-15T06:44:22;34.77;;;15.97;;
16954;SDS011;8594;52.052;8.354;2023-04-15T06:46:48;32.97;;;16.53;;
16954;SDS011;8594;52.052;8.354;2023-04-15T06:49:15;31.53;;;16.37;;
16954;SDS011;8594;52.052;8.354;2023-04-15T06:51:43;27.10;;;15.57;;
16954;SDS011;8594;52.052;8.354;2023-04-15T06:54:10;29.47;;;15.77;;
16954;SDS011;8594;52.052;8.354;2023-04-15T06:56:37;37.77;;;16.97;;
16954;SDS011;8594;52.052;8.354;2023-04-15T06:59:05;28.27;;;15.93;;
16954;SDS011;8594;52.052;8.354;2023-04-15T07:01:32;28.40;;;16.13;;
16954;SDS011;8594;52.052;8.354;2023-04-15T07:03:59;26.10;;;15.30;;
16954;SDS011;8594;52.052;8.354;2023-04-15T07:06:26;28.60;;;16.20;;
16954;SDS011;8594;52.052;8.354;2023-04-15T07:08:54;29.13;;;16.00;;
16954;SDS011;8594;52.052;8.354;2023-04-15T07:11:21;26.87;;;16.03;;
16954;SDS011;8594;52.052;8.354;2023-04-15T07:13:48;26.80;;;14.77;;
16954;SDS011;8594;52.052;8.354;2023-04-15T07:16:15;26.40;;;15.23;;
16954;SDS011;8594;52.052;8.354;2023-04-15T07:18:42;29.33;;;15.53;;
16954;SDS011;8594;52.052;8.354;2023-04-15T07:21:09;25.97;;;14.87;;
16954;SDS011;8594;52.052;8.354;2023-04-15T07:23:36;27.53;;;15.33;;
16954;SDS011;8594;52.052;8.354;2023-04-15T07:26:04;30.60;;;16.00;;
16954;SDS011;8594;52.052;8.354;2023-04-15T07:28:31;30.87;;;16.43;;
16954;SDS011;8594;52.052;8.354;2023-04-15T07:30:59;32.90;;;17.70;;
16954;SDS011;8594;52.052;8.354;2023-04-15T07:33:26;30.27;;;16.47;;
16954;SDS011;8594;52.052;8.354;2023-04-15T07:35:53;31.60;;;16.77;;
16954;SDS011;8594;52.052;8.354;2023-04-15T07:38:20;31.57;;;16.50;;
16954;SDS011;8594;52.052;8.354;2023-04-15T07:40:47;31.13;;;16.97;;
16954;SDS011;8594;52.052;8.354;2023-04-15T07:43:16;28.47;;;15.87;;
16954;SDS011;8594;52.052;8.354;2023-04-15T07:45:44;30.93;;;15.93;;
16954;SDS011;8594;52.052;8.354;2023-04-15T07:48:11;31.93;;;16.47;;
16954;SDS011;8594;52.052;8.354;2023-04-15T07:50:38;31.77;;;16.97;;
16954;SDS011;8594;52.052;8.354;2023-04-15T07:53:05;28.20;;;15.37;;
16954;SDS011;8594;52.052;8.354;2023-04-15T07:55:32;32.20;;;15.93;;
16954;SDS011;8594;52.052;8.354;2023-04-15T07:57:59;34.57;;;16.93;;
16954;SDS011;8594;52.052;8.354;2023-04-15T08:00:27;29.83;;;15.40;;
16954;SDS011;8594;52.052;8.354;2023-04-15T08:02:55;33.87;;;16.37;;
16954;SDS011;8594;52.052;8.354;2023-04-15T08:05:23;34.60;;;15.93;;
16954;SDS011;8594;52.052;8.354;2023-04-15T08:07:50;27.77;;;14.43;;
16954;SDS011;8594;52.052;8.354;2023-04-15T08:10:17;33.20;;;15.53;;
16954;SDS011;8594;52.052;8.354;2023-04-15T08:12:44;28.17;;;14.80;;
16954;SDS011;8594;52.052;8.354;2023-04-15T08:15:13;28.57;;;14.57;;
16954;SDS011;8594;52.052;8.354;2023-04-15T08:17:42;27.87;;;14.47;;
16954;SDS011;8594;52.052;8.354;2023-04-15T08:20:09;30.13;;;14.97;;
16954;SDS011;8594;52.052;8.354;2023-04-15T08:22:37;24.30;;;12.90;;
16954;SDS011;8594;52.052;8.354;2023-04-15T08:25:04;26.20;;;13.33;;
16954;SDS011;8594;52.052;8.354;2023-04-15T08:27:31;29.00;;;13.23;;
16954;SDS011;8594;52.052;8.354;2023-04-15T08:29:58;20.13;;;11.97;;
16954;SDS011;8594;52.052;8.354;2023-04-15T08:32:25;26.57;;;14.60;;
16954;SDS011;8594;52.052;8.354;2023-04-15T08:34:54;20.17;;;11.87;;
16954;SDS011;8594;52.052;8.354;2023-04-15T08:37:22;23.83;;;11.97;;
16954;SDS011;8594;52.052;8.354;2023-04-15T08:39:49;19.07;;;11.03;;
16954;SDS011;8594;52.052;8.354;2023-04-15T08:42:16;20.83;;;11.80;;
16954;SDS011;8594;52.052;8.354;2023-04-15T08:44:48;20.03;;;11.63;;
16954;SDS011;8594;52.052;8.354;2023-04-15T08:47:16;19.60;;;10.30;;
16954;SDS011;8594;52.052;8.354;2023-04-15T08:49:46;21.07;;;10.87;;
16954;SDS011;8594;52.052;8.354;2023-04-15T08:52:19;18.27;;;9.93;;
16954;SDS011;8594;52.052;8.354;2023-04-15T08:54:46;16.07;;;9.50;;
16954;SDS011;8594;52.052;8.354;2023-04-15T08:57:13;20.73;;;10.87;;
16954;SDS011;8594;52.052;8.354;2023-04-15T08:59:41;18.43;;;10.60;;
16954;SDS011;8594;52.052;8.354;2023-04-15T09:02:10;16.23;;;9.20;;
16954;SDS011;8594;52.052;8.354;2023-04-15T09:04:37;16.53;;;9.47;;
16954;SDS011;8594;52.052;8.354;2023-04-15T09:07:04;14.60;;;9.10;;
16954;SDS011;8594;52.052;8.354;2023-04-15T09:09:32;14.40;;;8.73;;
16954;SDS011;8594;52.052;8.354;2023-04-15T09:12:01;14.57;;;8.93;;
16954;SDS011;8594;52.052;8.354;2023-04-15T09:14:28;17.20;;;9.33;;
16954;SDS011;8594;52.052;8.354;2023-04-15T09:16:56;14.17;;;8.43;;
16954;SDS011;8594;52.052;8.354;2023-04-15T09:19:24;14.27;;;8.27;;
16954;SDS011;8594;52.052;8.354;2023-04-15T09:21:52;19.23;;;9.30;;
16954;SDS011;8594;52.052;8.354;2023-04-15T09:24:21;13.07;;;7.87;;
16954;SDS011;8594;52.052;8.354;2023-04-15T09:26:52;14.23;;;8.10;;
16954;SDS011;8594;52.052;8.354;2023-04-15T09:29:23;11.77;;;7.20;;
16954;SDS011;8594;52.052;8.354;2023-04-15T09:31:50;11.47;;;6.90;;
16954;SDS011;8594;52.052;8.354;2023-04-15T09:34:17;13.27;;;7.53;;
16954;SDS011;8594;52.052;8.354;2023-04-15T09:36:52;16.70;;;8.50;;
16954;SDS011;8594;52.052;8.354;2023-04-15T09:39:22;11.93;;;7.40;;
16954;SDS011;8594;52.052;8.354;2023-04-15T09:42:06;14.70;;;7.57;;
16954;SDS011;8594;52.052;8.354;2023-04-15T09:44:33;13.23;;;7.20;;
16954;SDS011;8594;52.052;8.354;2023-04-15T09:47:00;11.17;;;7.27;;
16954;SDS011;8594;52.052;8.354;2023-04-15T09:49:27;12.07;;;7.13;;
16954;SDS011;8594;52.052;8.354;2023-04-15T09:51:57;11.53;;;6.87;;
16954;SDS011;8594;52.052;8.354;2023-04-15T09:54:31;11.70;;;7.50;;
16954;SDS011;8594;52.052;8.354;2023-04-15T09:57:04;11.70;;;6.73;;
16954;SDS011;8594;52.052;8.354;2023-04-15T09:59:33;10.43;;;6.47;;
16954;SDS011;8594;52.052;8.354;2023-04-15T10:02:01;11.73;;;7.10;;
16954;SDS011;8594;52.052;8.354;2023-04-15T10:04:31;14.67;;;7.27;;
16954;SDS011;8594;52.052;8.354;2023-04-15T10:07:02;10.97;;;6.67;;
16954;SDS011;8594;52.052;8.354;2023-04-15T10:09:30;12.20;;;7.27;;
16954;SDS011;8594;52.052;8.354;2023-04-15T10:11:58;11.27;;;7.10;;
16954;SDS011;8594;52.052;8.354;2023-04-15T10:14:27;11.93;;;6.53;;
16954;SDS011;8594;52.052;8.354;2023-04-15T10:16:58;12.00;;;6.47;;
16954;SDS011;8594;52.052;8.354;2023-04-15T10:19:30;10.90;;;6.00;;
16954;SDS011;8594;52.052;8.354;2023-04-15T10:22:00;9.60;;;6.70;;
16954;SDS011;8594;52.052;8.354;2023-04-15T10:24:48;10.83;;;6.20;;
16954;SDS011;8594;52.052;8.354;2023-04-15T10:27:18;9.70;;;6.17;;
16954;SDS011;8594;52.052;8.354;2023-04-15T10:29:51;11.17;;;6.77;;
16954;SDS011;8594;52.052;8.354;2023-04-15T10:32:19;10.90;;;6.73;;
16954;SDS011;8594;52.052;8.354;2023-04-15T10:34:51;11.77;;;6.67;;
16954;SDS011;8594;52.052;8.354;2023-04-15T10:37:32;9.23;;;5.57;;
16954;SDS011;8594;52.052;8.354;2023-04-15T10:40:11;9.90;;;6.27;;
16954;SDS011;8594;52.052;8.354;2023-04-15T10:42:56;8.70;;;5.73;;
16954;SDS011;8594;52.052;8.354;2023-04-15T10:45:27;10.83;;;5.87;;
16954;SDS011;8594;52.052;8.354;2023-04-15T10:48:00;10.37;;;5.77;;
16954;SDS011;8594;52.052;8.354;2023-04-15T10:50:31;9.97;;;6.17;;
16954;SDS011;8594;52.052;8.354;2023-04-15T10:53:03;9.40;;;5.57;;
16954;SDS011;8594;52.052;8.354;2023-04-15T10:55:33;8.77;;;5.50;;
16954;SDS011;8594;52.052;8.354;2023-04-15T10:58:02;10.77;;;6.37;;
16954;SDS011;8594;52.052;8.354;2023-04-15T11:03:37;9.23;;;5.97;;
16954;SDS011;8594;52.052;8.354;2023-04-15T11:06:16;11.13;;;5.70;;
16954;SDS011;8594;52.052;8.354;2023-04-15T11:08:52;9.47;;;5.20;;
16954;SDS011;8594;52.052;8.354;2023-04-15T11:14:35;9.23;;;5.30;;
16954;SDS011;8594;52.052;8.354;2023-04-15T11:17:30;8.03;;;5.63;;
16954;SDS011;8594;52.052;8.354;2023-04-15T11:20:13;9.60;;;5.10;;
16954;SDS011;8594;52.052;8.354;2023-04-15T11:22:46;9.53;;;5.03;;
16954;SDS011;8594;52.052;8.354;2023-04-15T11:25:20;8.30;;;4.87;;
16954;SDS011;8594;52.052;8.354;2023-04-15T11:27:50;9.00;;;5.80;;
16954;SDS011;8594;52.052;8.354;2023-04-15T11:30:22;7.57;;;5.00;;
16954;SDS011;8594;52.052;8.354;2023-04-15T11:32:53;8.93;;;5.60;;
16954;SDS011;8594;52.052;8.354;2023-04-15T11:35:23;9.00;;;6.00;;
16954;SDS011;8594;52.052;8.354;2023-04-15T11:37:50;7.67;;;5.00;;
16954;SDS011;8594;52.052;8.354;2023-04-15T11:40:21;8.43;;;5.00;;
16954;SDS011;8594;52.052;8.354;2023-04-15T11:43:02;9.13;;;5.07;;
16954;SDS011;8594;52.052;8.354;2023-04-15T11:45:30;7.40;;;4.83;;
16954;SDS011;8594;52.052;8.354;2023-04-15T11:48:05;7.27;;;4.90;;
16954;SDS011;8594;52.052;8.354;2023-04-15T11:50:33;8.67;;;5.70;;
16954;SDS011;8594;52.052;8.354;2023-04-15T11:53:02;8.60;;;5.10;;
16954;SDS011;8594;52.052;8.354;2023-04-15T11:55:30;13.53;;;4.57;;
16954;SDS011;8594;52.052;8.354;2023-04-15T11:58:08;6.47;;;4.37;;
16954;SDS011;8594;52.052;8.354;2023-04-15T12:00:38;6.83;;;4.03;;
16954;SDS011;8594;52.052;8.354;2023-04-15T12:03:14;7.50;;;4.50;;
16954;SDS011;8594;52.052;8.354;2023-04-15T12:06:06;6.00;;;4.23;;
16954;SDS011;8594;52.052;8.354;2023-04-15T12:08:46;6.97;;;4.10;;
16954;SDS011;8594;52.052;8.354;2023-04-15T12:11:27;5.67;;;4.30;;
16954;SDS011;8594;52.052;8.354;2023-04-15T12:14:11;5.40;;;4.03;;
16954;SDS011;8594;52.052;8.354;2023-04-15T12:16:46;5.37;;;4.03;;
16954;SDS011;8594;52.052;8.354;2023-04-15T12:19:17;7.10;;;3.63;;
16954;SDS011;8594;52.052;8.354;2023-04-15T12:21:49;5.33;;;3.57;;
16954;SDS011;8594;52.052;8.354;2023-04-15T12:24:19;5.67;;;3.83;;
16954;SDS011;8594;52.052;8.354;2023-04-15T12:26:48;5.17;;;3.60;;
16954;SDS011;8594;52.052;8.354;2023-04-15T12:29:16;6.20;;;3.67;;
16954;SDS011;8594;52.052;8.354;2023-04-15T12:31:45;6.70;;;3.80;;
16954;SDS011;8594;52.052;8.354;2023-04-15T12:34:24;4.97;;;3.77;;
16954;SDS011;8594;52.052;8.354;2023-04-15T12:36:53;5.57;;;3.67;;
16954;SDS011;8594;52.052;8.354;2023-04-15T12:39:22;7.40;;;3.93;;
16954;SDS011;8594;52.052;8.354;2023-04-15T12:41:49;5.37;;;3.70;;
16954;SDS011;8594;52.052;8.354;2023-04-15T12:44:16;5.47;;;3.43;;
16954;SDS011;8594;52.052;8.354;2023-04-15T12:46:44;4.83;;;3.60;;
16954;SDS011;8594;52.052;8.354;2023-04-15T12:49:10;4.07;;;3.10;;
16954;SDS011;8594;52.052;8.354;2023-04-15T12:51:41;4.03;;;3.13;;
16954;SDS011;8594;52.052;8.354;2023-04-15T12:54:08;4.70;;;3.40;;
16954;SDS011;8594;52.052;8.354;2023-04-15T12:56:35;4.17;;;3.50;;
16954;SDS011;8594;52.052;8.354;2023-04-15T12:59:02;4.90;;;3.40;;
16954;SDS011;8594;52.052;8.354;2023-04-15T13:01:30;4.17;;;3.07;;
16954;SDS011;8594;52.052;8.354;2023-04-15T13:04:06;3.77;;;3.03;;
16954;SDS011;8594;52.052;8.354;2023-04-15T13:06:41;5.10;;;2.93;;
16954;SDS011;8594;52.052;8.354;2023-04-15T13:09:09;4.43;;;3.30;;
16954;SDS011;8594;52.052;8.354;2023-04-15T13:11:35;3.93;;;2.90;;
16954;SDS011;8594;52.052;8.354;2023-04-15T13:14:03;7.27;;;3.10;;
16954;SDS011;8594;52.052;8.354;2023-04-15T13:16:32;4.87;;;3.00;;
16954;SDS011;8594;52.052;8.354;2023-04-15T13:18:59;3.93;;;2.83;;
16954;SDS011;8594;52.052;8.354;2023-04-15T13:21:27;3.40;;;2.73;;
16954;SDS011;8594;52.052;8.354;2023-04-15T13:23:57;3.43;;;2.80;;
16954;SDS011;8594;52.052;8.354;2023-04-15T13:26:25;5.07;;;2.80;;
16954;SDS011;8594;52.052;8.354;2023-04-15T13:28:52;5.57;;;3.33;;
16954;SDS011;8594;52.052;8.354;2023-04-15T13:31:18;4.20;;;3.00;;
16954;SDS011;8594;52.052;8.354;2023-04-15T13:33:45;4.93;;;3.57;;
16954;SDS011;8594;52.052;8.354;2023-04-15T13:36:12;6.23;;;4.03;;
16954;SDS011;8594;52.052;8.354;2023-04-15T13:38:39;5.53;;;4.20;;
16954;SDS011;8594;52.052;8.354;2023-04-15T13:41:07;7.57;;;4.73;;
16954;SDS011;8594;52.052;8.354;2023-04-15T13:43:33;5.80;;;3.90;;
16954;SDS011;8594;52.052;8.354;2023-04-15T13:46:00;8.07;;;4.93;;
16954;SDS011;8594;52.052;8.354;2023-04-15T13:48:27;7.93;;;5.20;;
16954;SDS011;8594;52.052;8.354;2023-04-15T13:50:54;11.33;;;5.53;;
16954;SDS011;8594;52.052;8.354;2023-04-15T13:53:21;8.20;;;5.13;;
16954;SDS011;8594;52.052;8.354;2023-04-15T13:55:48;8.87;;;6.03;;
16954;SDS011;8594;52.052;8.354;2023-04-15T13:58:16;9.00;;;5.13;;
16954;SDS011;8594;52.052;8.354;2023-04-15T14:00:43;8.70;;;5.93;;
16954;SDS011;8594;52.052;8.354;2023-04-15T14:03:10;11.77;;;6.83;;
16954;SDS011;8594;52.052;8.354;2023-04-15T14:05:36;10.17;;;6.27;;
16954;SDS011;8594;52.052;8.354;2023-04-15T14:08:03;9.87;;;6.23;;
16954;SDS011;8594;52.052;8.354;2023-04-15T14:10:30;9.40;;;6.27;;
16954;SDS011;8594;52.052;8.354;2023-04-15T14:12:57;10.63;;;6.60;;
16954;SDS011;8594;52.052;8.354;2023-04-15T14:15:25;11.10;;;6.87;;
16954;SDS011;8594;52.052;8.354;2023-04-15T14:17:52;12.93;;;7.17;;
16954;SDS011;8594;52.052;8.354;2023-04-15T14:20:19;14.97;;;7.77;;
16954;SDS011;8594;52.052;8.354;2023-04-15T14:22:46;11.03;;;7.10;;
16954;SDS011;8594;52.052;8.354;2023-04-15T14:25:12;11.83;;;7.40;;
16954;SDS011;8594;52.052;8.354;2023-04-15T14:27:39;13.47;;;7.00;;
16954;SDS011;8594;52.052;8.354;2023-04-15T14:30:07;14.03;;;7.37;;
16954;SDS011;8594;52.052;8.354;2023-04-15T14:32:36;11.63;;;7.80;;
16954;SDS011;8594;52.052;8.354;2023-04-15T14:35:03;14.80;;;7.63;;
16954;SDS011;8594;52.052;8.354;2023-04-15T14:37:31;16.23;;;7.87;;
16954;SDS011;8594;52.052;8.354;2023-04-15T14:39:58;13.90;;;7.97;;
16954;SDS011;8594;52.052;8.354;2023-04-15T14:42:24;11.03;;;6.93;;
16954;SDS011;8594;52.052;8.354;2023-04-15T14:44:51;14.07;;;7.87;;
16954;SDS011;8594;52.052;8.354;2023-04-15T14:47:18;12.77;;;7.97;;
16954;SDS011;8594;52.052;8.354;2023-04-15T14:49:46;14.07;;;8.30;;
16954;SDS011;8594;52.052;8.354;2023-04-15T14:52:13;14.80;;;8.63;;
16954;SDS011;8594;52.052;8.354;2023-04-15T14:54:40;15.77;;;9.00;;
16954;SDS011;8594;52.052;8.354;2023-04-15T14:57:06;12.43;;;8.20;;
16954;SDS011;8594;52.052;8.354;2023-04-15T14:59:33;16.30;;;8.33;;